createdAt,value
2022-08-07T09:26:22.093Z,72.74
2022-08-07T09:30:00.608Z,71.87
2022-08-07T09:32:26.414Z,71.15
2022-08-07T09:36:04.168Z,70.91
2022-08-07T09:38:28.964Z,70.35
2022-08-07T09:41:20.112Z,66.00
2022-08-07T09:44:19.433Z,66.68
2022-08-07T09:47:52.709Z,66.68
2022-08-07T09:50:26.403Z,64.71
2022-08-07T09:53:06.278Z,65.14
2022-08-07T09:56:06.593Z,65.48
2022-08-07T09:59:44.583Z,66.86
2022-08-07T10:04:05.009Z,68.84
2022-08-07T10:06:54.011Z,67.86
2022-08-07T10:10:06.635Z,64.60
2022-08-07T10:13:54.908Z,65.88
2022-08-07T10:16:59.493Z,63.81
2022-08-07T10:19:58.770Z,62.33
2022-08-07T10:23:14.190Z,61.26
2022-08-07T10:26:09.359Z,60.30
2022-08-07T10:29:10.622Z,61.30
2022-08-07T10:32:03.231Z,59.79
2022-08-07T10:35:01.953Z,63.56
2022-08-07T10:38:20.839Z,68.07
2022-08-07T10:41:15.257Z,70.40
2022-08-07T10:44:38.044Z,72.39
2022-08-07T10:47:53.176Z,73.73
2022-08-07T10:50:37.901Z,74.66
2022-08-07T10:53:44.182Z,76.57
2022-08-07T10:56:38.471Z,73.96
2022-08-07T10:59:22.378Z,75.78
2022-08-07T11:02:12.392Z,78.40
2022-08-07T11:05:48.657Z,78.53
2022-08-07T11:08:43.093Z,72.04
2022-08-07T11:11:28.388Z,67.49
2022-08-07T11:14:57.474Z,62.53
2022-08-07T11:17:23.431Z,62.43
2022-08-07T11:20:22.594Z,63.67
2022-08-07T11:23:26.257Z,59.38
2022-08-07T11:26:20.972Z,60.31
2022-08-07T11:29:22.337Z,61.96
2022-08-07T11:32:14.347Z,60.36
2022-08-07T11:35:09.453Z,60.37
2022-08-07T11:38:17.424Z,60.54
2022-08-07T11:41:02.221Z,60.92
2022-08-07T11:44:10.967Z,61.36
2022-08-07T11:47:04.151Z,58.60
2022-08-07T11:50:32.384Z,57.88
2022-08-07T11:53:35.259Z,56.28
2022-08-07T11:56:31.829Z,57.58
